Time;durP1;ratioP1;P1;durP2;ratioP2;P2;SDS_P1;SDS_P2;PMS_P1;PMS_P2;Temp;Humidity;BMP_temperature;BMP_pressure;BME280_temperature;BME280_humidity;BME280_pressure;Samples;Min_cycle;Max_cycle;Signal;HPM_P1;HPM_P2
2022/11/25 00:02:47;;;;;;;68.28;36.88;;;;;;;;;;6237522;28;20104;-71
2022/11/25 00:05:50;;;;;;;32.25;20.23;;;;;;;;;;6236496;28;20258;-70
2022/11/25 00:08:54;;;;;;;20.08;13.50;;;;;;;;;;6239452;28;20060;-67
2022/11/25 00:11:56;;;;;;;18.17;11.77;;;;;;;;;;6237196;28;20053;-70
2022/11/25 00:14:58;;;;;;;17.77;12.52;;;;;;;;;;6240360;28;20065;-69
2022/11/25 00:18:00;;;;;;;17.60;11.93;;;;;;;;;;6238878;28;20132;-70
2022/11/25 00:21:07;;;;;;;18.48;11.93;;;;;;;;;;6237807;28;20375;-70
2022/11/25 00:24:09;;;;;;;15.82;11.57;;;;;;;;;;6239247;28;20054;-70
2022/11/25 00:27:10;;;;;;;18.17;12.15;;;;;;;;;;6238762;28;20063;-70
2022/11/25 00:30:13;;;;;;;17.30;12.30;;;;;;;;;;6236326;28;20108;-71
2022/11/25 00:33:17;;;;;;;17.73;12.05;;;;;;;;;;6240352;28;20048;-67
2022/11/25 00:36:22;;;;;;;18.52;11.68;;;;;;;;;;6238863;28;20210;-70
2022/11/25 00:39:25;;;;;;;20.35;12.23;;;;;;;;;;6237069;28;20271;-70
2022/11/25 00:45:46;;;;;;;18.58;12.15;;;;;;;;;;6236558;28;20334;-68
2022/11/25 00:48:48;;;;;;;16.90;11.63;;;;;;;;;;6230486;28;20053;-70
2022/11/25 00:51:51;;;;;;;19.23;12.30;;;;;;;;;;6233392;28;20050;-70
2022/11/25 00:54:53;;;;;;;18.65;11.50;;;;;;;;;;6231938;28;20057;-70
2022/11/25 00:57:56;;;;;;;17.65;12.45;;;;;;;;;;6243200;28;20049;-72
2022/11/25 01:01:01;;;;;;;16.55;11.63;;;;;;;;;;6239361;28;20073;-69
2022/11/25 01:04:04;;;;;;;17.98;12.27;;;;;;;;;;6243342;28;20132;-69
2022/11/25 01:07:06;;;;;;;19.95;12.32;;;;;;;;;;6235312;28;20390;-70
2022/11/25 01:10:09;;;;;;;20.08;12.95;;;;;;;;;;6228541;28;20066;-69
2022/11/25 01:13:11;;;;;;;18.02;12.35;;;;;;;;;;6239005;28;20046;-70
2022/11/25 01:16:14;;;;;;;16.95;12.52;;;;;;;;;;6241957;28;20105;-70
2022/11/25 01:19:17;;;;;;;20.17;12.27;;;;;;;;;;6238402;28;20057;-71
2022/11/25 01:22:20;;;;;;;18.95;12.85;;;;;;;;;;6240672;28;20085;-70
2022/11/25 01:25:21;;;;;;;17.48;12.40;;;;;;;;;;6236379;28;20128;-69
2022/11/25 01:28:23;;;;;;;19.50;12.43;;;;;;;;;;6239192;28;20125;-67
2022/11/25 01:31:27;;;;;;;18.33;12.80;;;;;;;;;;6234402;28;20064;-71
2022/11/25 01:34:30;;;;;;;16.08;11.15;;;;;;;;;;6242866;28;20113;-71
2022/11/25 01:37:33;;;;;;;18.33;12.38;;;;;;;;;;6241562;28;20358;-69
2022/11/25 01:40:36;;;;;;;17.98;12.10;;;;;;;;;;6240276;28;20310;-68
2022/11/25 01:43:37;;;;;;;17.67;12.35;;;;;;;;;;6237966;28;20203;-70
2022/11/25 01:46:55;;;;;;;19.65;12.60;;;;;;;;;;6242736;28;20044;-68
2022/11/25 01:50:00;;;;;;;17.02;11.65;;;;;;;;;;6240253;28;20064;-68
2022/11/25 01:53:06;;;;;;;20.17;12.32;;;;;;;;;;6237606;28;20069;-68
2022/11/25 01:56:08;;;;;;;17.52;11.60;;;;;;;;;;6231970;28;20045;-68
2022/11/25 01:59:10;;;;;;;16.42;11.52;;;;;;;;;;6236345;28;20050;-69
2022/11/25 02:02:12;;;;;;;15.23;11.57;;;;;;;;;;6235140;28;20382;-69
2022/11/25 02:05:17;;;;;;;16.13;11.88;;;;;;;;;;6233140;28;20057;-69
2022/11/25 02:08:23;;;;;;;16.50;11.32;;;;;;;;;;6240095;28;20068;-69
2022/11/25 02:11:27;;;;;;;21.17;11.57;;;;;;;;;;6240888;28;20091;-68
2022/11/25 02:14:28;;;;;;;;;;;;;;;;;;6243022;28;20348;-69
2022/11/25 02:17:30;;;;;;;14.43;10.15;;;;;;;;;;6242955;28;19932;-68
2022/11/25 02:20:32;;;;;;;14.73;10.60;;;;;;;;;;6239582;28;20121;-69
2022/11/25 02:23:39;;;;;;;14.15;10.05;;;;;;;;;;6245090;28;20052;-69
2022/11/25 02:26:42;;;;;;;12.38;9.38;;;;;;;;;;6243423;28;20128;-69
2022/11/25 02:29:44;;;;;;;15.37;10.40;;;;;;;;;;6205436;28;20065;-69
2022/11/25 02:32:47;;;;;;;15.25;9.07;;;;;;;;;;6223374;28;20656;-69
2022/11/25 02:35:51;;;;;;;13.60;10.05;;;;;;;;;;6240910;28;20068;-71
2022/11/25 02:38:54;;;;;;;16.15;9.52;;;;;;;;;;6237204;28;20052;-71
2022/11/25 02:41:58;;;;;;;17.75;10.13;;;;;;;;;;6238215;28;20046;-69
2022/11/25 02:45:00;;;;;;;13.45;8.90;;;;;;;;;;6228661;28;20096;-69
2022/11/25 02:48:02;;;;;;;15.63;10.00;;;;;;;;;;6237237;28;20057;-69
2022/11/25 02:51:04;;;;;;;15.02;9.27;;;;;;;;;;6234954;28;20058;-69
2022/11/25 02:54:06;;;;;;;13.15;9.40;;;;;;;;;;6230546;28;20049;-69
2022/11/25 02:57:09;;;;;;;12.93;8.95;;;;;;;;;;6238963;28;20051;-68
2022/11/25 03:00:12;;;;;;;15.68;9.98;;;;;;;;;;6237345;28;20061;-69
2022/11/25 03:03:15;;;;;;;13.60;9.77;;;;;;;;;;6241998;28;20060;-68
2022/11/25 03:06:16;;;;;;;14.57;9.38;;;;;;;;;;6238059;28;20055;-68
2022/11/25 03:09:18;;;;;;;12.55;9.57;;;;;;;;;;6239993;28;20057;-68
2022/11/25 03:12:21;;;;;;;13.38;9.40;;;;;;;;;;6238754;28;20053;-68
2022/11/25 03:15:23;;;;;;;13.65;9.93;;;;;;;;;;6239518;28;20060;-68
2022/11/25 03:18:25;;;;;;;13.50;9.32;;;;;;;;;;6239480;28;20045;-71
2022/11/25 03:21:26;;;;;;;13.52;9.88;;;;;;;;;;6238989;28;20103;-69
2022/11/25 03:24:28;;;;;;;15.15;8.85;;;;;;;;;;6230805;28;20091;-68
2022/11/25 03:27:33;;;;;;;13.27;9.32;;;;;;;;;;6241621;28;20092;-68
2022/11/25 03:30:34;;;;;;;12.15;8.98;;;;;;;;;;6231491;28;20054;-69
2022/11/25 03:33:36;;;;;;;13.82;8.93;;;;;;;;;;6240105;28;20053;-71
2022/11/25 03:36:38;;;;;;;13.65;9.73;;;;;;;;;;6231893;28;20095;-71
2022/11/25 03:39:40;;;;;;;13.40;9.23;;;;;;;;;;6229253;28;20069;-68
2022/11/25 03:42:43;;;;;;;17.48;9.35;;;;;;;;;;6240463;28;20049;-67
2022/11/25 03:45:48;;;;;;;16.50;10.18;;;;;;;;;;6241314;28;20049;-68
2022/11/25 03:48:50;;;;;;;13.07;9.13;;;;;;;;;;6222510;28;20050;-68
2022/11/25 03:51:51;;;;;;;14.95;10.23;;;;;;;;;;6231872;28;20069;-69
2022/11/25 03:54:53;;;;;;;13.18;9.02;;;;;;;;;;6240941;28;20049;-68
2022/11/25 03:57:56;;;;;;;14.77;9.88;;;;;;;;;;6237523;28;20344;-69
2022/11/25 04:01:00;;;;;;;12.95;9.57;;;;;;;;;;6239811;28;20054;-68
2022/11/25 04:04:02;;;;;;;;;;;;;;;;;;6238890;28;20049;-67
2022/11/25 04:07:03;;;;;;;17.52;8.95;;;;;;;;;;6233854;28;19948;-70
2022/11/25 04:10:07;;;;;;;12.40;8.95;;;;;;;;;;6240941;28;20119;-69
2022/11/25 04:13:10;;;;;;;12.18;8.52;;;;;;;;;;6237990;28;20046;-69
2022/11/25 04:16:22;;;;;;;14.27;8.68;;;;;;;;;;6238663;28;20322;-69
2022/11/25 04:19:24;;;;;;;15.27;9.18;;;;;;;;;;6239910;28;20103;-68
2022/11/25 04:22:26;;;;;;;13.60;8.52;;;;;;;;;;6240638;28;20060;-69
2022/11/25 04:25:27;;;;;;;12.70;8.27;;;;;;;;;;6237838;28;20715;-68
2022/11/25 04:28:30;;;;;;;14.43;9.32;;;;;;;;;;6236472;28;20057;-69
2022/11/25 04:31:32;;;;;;;13.73;8.50;;;;;;;;;;6236378;28;20380;-69
2022/11/25 04:34:34;;;;;;;12.63;8.05;;;;;;;;;;6244105;28;20491;-69
2022/11/25 04:37:36;;;;;;;12.32;8.38;;;;;;;;;;6242443;28;20053;-70
2022/11/25 04:40:37;;;;;;;16.90;9.68;;;;;;;;;;6243328;28;20234;-69
2022/11/25 04:43:40;;;;;;;11.95;8.45;;;;;;;;;;6243616;28;20058;-68
2022/11/25 04:46:42;;;;;;;14.52;7.88;;;;;;;;;;6240067;28;20042;-69
2022/11/25 04:49:44;;;;;;;13.15;8.25;;;;;;;;;;6242701;28;20117;-70
2022/11/25 04:52:46;;;;;;;17.08;8.80;;;;;;;;;;6236507;28;20041;-69
2022/11/25 04:55:48;;;;;;;12.75;8.55;;;;;;;;;;6236908;28;20061;-69
2022/11/25 05:02:13;;;;;;;13.18;8.73;;;;;;;;;;6242158;28;20045;-69
2022/11/25 05:05:15;;;;;;;10.43;8.05;;;;;;;;;;6241945;28;20053;-67
2022/11/25 05:08:17;;;;;;;11.18;7.75;;;;;;;;;;6241918;28;20049;-69
2022/11/25 05:11:19;;;;;;;13.20;7.55;;;;;;;;;;6237057;28;20242;-69
2022/11/25 05:14:22;;;;;;;12.10;7.43;;;;;;;;;;6236567;28;20069;-70
2022/11/25 05:17:26;;;;;;;12.52;7.70;;;;;;;;;;6244491;28;20350;-70
2022/11/25 05:20:28;;;;;;;11.45;7.22;;;;;;;;;;6243032;28;20060;-69
2022/11/25 05:23:29;;;;;;;12.45;7.95;;;;;;;;;;6228786;28;20050;-69
2022/11/25 05:26:31;;;;;;;9.15;6.93;;;;;;;;;;6240026;28;20924;-70
2022/11/25 05:29:36;;;;;;;12.25;7.47;;;;;;;;;;6242130;28;20057;-69
2022/11/25 05:32:39;;;;;;;14.60;7.28;;;;;;;;;;6240950;28;20423;-70
2022/11/25 05:35:40;;;;;;;12.57;7.88;;;;;;;;;;6235734;28;20054;-69
2022/11/25 05:38:42;;;;;;;12.25;7.70;;;;;;;;;;6239453;28;20123;-69
2022/11/25 05:41:44;;;;;;;13.85;8.63;;;;;;;;;;6241597;28;20053;-70
2022/11/25 05:44:47;;;;;;;10.80;7.85;;;;;;;;;;6226501;28;20053;-69
2022/11/25 05:47:49;;;;;;;11.73;7.28;;;;;;;;;;6234450;28;20272;-69
2022/11/25 05:50:50;;;;;;;10.63;7.60;;;;;;;;;;6243064;28;20241;-69
2022/11/25 05:53:52;;;;;;;10.48;7.28;;;;;;;;;;6241754;28;20151;-68
2022/11/25 05:56:54;;;;;;;15.25;7.65;;;;;;;;;;6242240;28;20072;-69
2022/11/25 05:59:56;;;;;;;10.02;7.35;;;;;;;;;;6243980;28;20068;-70
2022/11/25 06:02:59;;;;;;;11.60;8.52;;;;;;;;;;6238112;28;20053;-70
2022/11/25 06:06:01;;;;;;;16.92;9.18;;;;;;;;;;6241536;28;20341;-74
2022/11/25 06:09:02;;;;;;;11.60;8.73;;;;;;;;;;6237650;28;20064;-72
2022/11/25 06:12:05;;;;;;;14.63;9.70;;;;;;;;;;6229742;28;20068;-72
2022/11/25 06:15:09;;;;;;;12.13;9.75;;;;;;;;;;6230402;28;20146;-70
2022/11/25 06:18:12;;;;;;;14.48;10.07;;;;;;;;;;6242760;28;20057;-72
2022/11/25 06:21:14;;;;;;;15.77;10.95;;;;;;;;;;6243722;28;20057;-73
2022/11/25 06:24:16;;;;;;;15.20;11.93;;;;;;;;;;6241196;28;20049;-71
2022/11/25 06:27:17;;;;;;;15.52;11.25;;;;;;;;;;6238703;28;20061;-71
2022/11/25 06:30:21;;;;;;;14.52;10.95;;;;;;;;;;6240223;28;20064;-72
2022/11/25 06:33:23;;;;;;;15.48;11.60;;;;;;;;;;6235654;28;20049;-72
2022/11/25 06:36:24;;;;;;;16.23;11.60;;;;;;;;;;6236836;28;20060;-72
2022/11/25 06:39:26;;;;;;;16.65;12.77;;;;;;;;;;6233587;28;20046;-72
2022/11/25 06:42:28;;;;;;;17.13;13.50;;;;;;;;;;6238365;28;20081;-72
2022/11/25 06:45:31;;;;;;;19.33;14.10;;;;;;;;;;6236103;28;20096;-73
2022/11/25 06:48:33;;;;;;;18.98;13.80;;;;;;;;;;6233124;28;20379;-73
2022/11/25 06:51:35;;;;;;;21.23;13.75;;;;;;;;;;6240237;28;20080;-68
2022/11/25 06:54:39;;;;;;;16.58;13.30;;;;;;;;;;6241295;28;20054;-75
2022/11/25 06:57:42;;;;;;;20.17;14.52;;;;;;;;;;6239696;28;20240;-69
2022/11/25 07:00:45;;;;;;;20.77;15.07;;;;;;;;;;6222684;28;20041;-71
2022/11/25 07:03:48;;;;;;;21.08;15.52;;;;;;;;;;6241633;28;20053;-72
2022/11/25 07:06:50;;;;;;;22.40;16.02;;;;;;;;;;6239029;28;20153;-76
2022/11/25 07:09:51;;;;;;;20.33;15.35;;;;;;;;;;6238021;28;20302;-76
2022/11/25 07:12:53;;;;;;;27.02;15.73;;;;;;;;;;6232945;28;20057;-73
2022/11/25 07:15:56;;;;;;;28.52;16.40;;;;;;;;;;6237997;28;20317;-73
2022/11/25 07:19:00;;;;;;;26.70;17.75;;;;;;;;;;6241175;28;20060;-73
2022/11/25 07:22:02;;;;;;;;;;;;;;;;;;6238266;28;20069;-71
2022/11/25 07:25:04;;;;;;;28.73;17.33;;;;;;;;;;6236598;28;19964;-70
2022/11/25 07:28:06;;;;;;;26.15;17.70;;;;;;;;;;6237920;28;20054;-73
2022/11/25 07:31:10;;;;;;;28.48;17.70;;;;;;;;;;6237212;28;20053;-67
2022/11/25 07:34:16;;;;;;;22.25;16.83;;;;;;;;;;6233925;28;20104;-74
2022/11/25 07:37:18;;;;;;;26.58;17.27;;;;;;;;;;6237843;28;20128;-73
2022/11/25 07:40:19;;;;;;;31.40;19.30;;;;;;;;;;6240470;28;20052;-73
2022/11/25 07:43:21;;;;;;;32.30;19.30;;;;;;;;;;6240103;28;20210;-73
2022/11/25 07:46:26;;;;;;;30.38;19.35;;;;;;;;;;6237477;28;20045;-72
2022/11/25 07:49:28;;;;;;;35.83;20.65;;;;;;;;;;6224812;28;20054;-73
2022/11/25 07:52:29;;;;;;;108.20;27.95;;;;;;;;;;6230869;28;20057;-74
2022/11/25 07:55:31;;;;;;;46.60;22.40;;;;;;;;;;6239932;28;20046;-75
2022/11/25 07:58:33;;;;;;;28.40;20.17;;;;;;;;;;6238289;28;20065;-71
2022/11/25 08:01:36;;;;;;;28.65;21.17;;;;;;;;;;6239900;28;20112;-73
2022/11/25 08:04:37;;;;;;;27.35;21.30;;;;;;;;;;6234801;28;20096;-74
2022/11/25 08:07:39;;;;;;;29.73;21.52;;;;;;;;;;6245253;28;20048;-73
2022/11/25 08:10:41;;;;;;;28.52;22.25;;;;;;;;;;6245933;28;20281;-73
2022/11/25 08:13:43;;;;;;;32.17;21.70;;;;;;;;;;6238641;28;20556;-73
2022/11/25 08:16:46;;;;;;;29.00;22.08;;;;;;;;;;6247011;28;20692;-73
2022/11/25 08:19:48;;;;;;;27.90;20.47;;;;;;;;;;6246671;28;20053;-74
2022/11/25 08:22:49;;;;;;;26.50;20.33;;;;;;;;;;6249084;28;20053;-72
2022/11/25 08:25:51;;;;;;;25.90;19.90;;;;;;;;;;6239356;28;20293;-72
2022/11/25 08:28:53;;;;;;;25.58;19.45;;;;;;;;;;6242214;28;20341;-71
2022/11/25 08:31:57;;;;;;;26.10;20.17;;;;;;;;;;6248724;28;20088;-72
2022/11/25 08:34:59;;;;;;;33.83;21.48;;;;;;;;;;6245248;28;20345;-72
2022/11/25 08:38:00;;;;;;;28.20;21.58;;;;;;;;;;6247425;28;20054;-71
2022/11/25 08:41:02;;;;;;;30.73;22.88;;;;;;;;;;6246881;28;20064;-72
2022/11/25 08:44:07;;;;;;;30.88;22.17;;;;;;;;;;6238703;28;20103;-72
2022/11/25 08:47:10;;;;;;;31.52;23.88;;;;;;;;;;6242303;28;20056;-72
2022/11/25 08:50:14;;;;;;;29.70;22.70;;;;;;;;;;6241255;28;20074;-68
2022/11/25 08:53:17;;;;;;;32.88;24.23;;;;;;;;;;6250961;28;20116;-72
2022/11/25 08:56:20;;;;;;;35.47;24.30;;;;;;;;;;6246633;28;20714;-71
2022/11/25 08:59:22;;;;;;;35.67;24.58;;;;;;;;;;6247836;28;20290;-72
2022/11/25 09:02:25;;;;;;;38.90;25.38;;;;;;;;;;6244969;28;20059;-73
2022/11/25 09:05:27;;;;;;;36.85;26.17;;;;;;;;;;6244660;28;20414;-72
2022/11/25 09:08:30;;;;;;;42.08;27.20;;;;;;;;;;6237410;28;21432;-72
2022/11/25 09:11:31;;;;;;;42.83;27.52;;;;;;;;;;6247758;28;20120;-72
2022/11/25 09:14:33;;;;;;;45.60;26.10;;;;;;;;;;6230384;28;20041;-72
2022/11/25 09:17:36;;;;;;;66.82;28.60;;;;;;;;;;6243323;28;20054;-69
2022/11/25 09:20:39;;;;;;;94.78;31.83;;;;;;;;;;6243180;28;20095;-74
2022/11/25 09:23:41;;;;;;;58.77;27.93;;;;;;;;;;6242579;28;20104;-74
2022/11/25 09:26:44;;;;;;;49.95;26.30;;;;;;;;;;6242591;28;20061;-73
2022/11/25 09:29:45;;;;;;;60.97;30.00;;;;;;;;;;6235380;28;20064;-74
2022/11/25 09:32:50;;;;;;;37.17;25.30;;;;;;;;;;6242644;28;20078;-72
2022/11/25 09:35:54;;;;;;;39.92;24.02;;;;;;;;;;6242575;28;20053;-74
2022/11/25 09:38:56;;;;;;;38.15;23.60;;;;;;;;;;6241899;28;20233;-73
2022/11/25 09:48:59;;;;;;;34.08;20.83;;;;;;;;;;6240575;28;20057;-73
2022/11/25 09:52:09;;;;;;;30.40;19.33;;;;;;;;;;6239420;28;20053;-72
2022/11/25 09:55:14;;;;;;;21.60;16.95;;;;;;;;;;6242110;28;20091;-74
2022/11/25 09:58:23;;;;;;;22.00;15.05;;;;;;;;;;6238866;28;20404;-73
2022/11/25 10:01:28;;;;;;;20.80;14.82;;;;;;;;;;6242838;28;20050;-75
2022/11/25 10:04:34;;;;;;;26.23;12.23;;;;;;;;;;6240372;28;20079;-74
2022/11/25 10:07:38;;;;;;;20.92;12.35;;;;;;;;;;6243354;28;20053;-74
2022/11/25 10:10:44;;;;;;;12.55;9.55;;;;;;;;;;6240222;28;20042;-72
2022/11/25 10:13:51;;;;;;;17.60;10.20;;;;;;;;;;6238758;28;20132;-73
2022/11/25 10:16:58;;;;;;;10.95;8.88;;;;;;;;;;6234947;28;20104;-74
2022/11/25 10:20:03;;;;;;;11.18;9.18;;;;;;;;;;6240629;28;20104;-71
2022/11/25 10:23:10;;;;;;;12.05;9.52;;;;;;;;;;6241921;28;20057;-74
2022/11/25 10:26:14;;;;;;;12.85;8.82;;;;;;;;;;6234522;28;20273;-74
2022/11/25 10:29:35;;;;;;;10.18;8.50;;;;;;;;;;6240729;28;20058;-72
2022/11/25 10:32:41;;;;;;;10.02;9.02;;;;;;;;;;6240475;28;20100;-70
2022/11/25 10:35:48;;;;;;;9.35;7.80;;;;;;;;;;6239656;28;20042;-73
2022/11/25 10:38:54;;;;;;;9.05;7.60;;;;;;;;;;6239163;28;20100;-75
2022/11/25 10:42:00;;;;;;;12.20;7.88;;;;;;;;;;6239046;28;20054;-74
2022/11/25 10:45:07;;;;;;;10.52;7.30;;;;;;;;;;6234713;28;20318;-75
2022/11/25 10:48:23;;;;;;;8.68;7.35;;;;;;;;;;6229799;28;22023;-75
2022/11/25 10:51:39;;;;;;;7.85;6.95;;;;;;;;;;6242798;28;20057;-75
2022/11/25 10:54:41;;;;;;;8.00;6.68;;;;;;;;;;6239595;28;20049;-73
2022/11/25 10:57:44;;;;;;;10.47;7.23;;;;;;;;;;6232951;28;20069;-73
2022/11/25 11:00:45;;;;;;;8.80;6.90;;;;;;;;;;6239994;28;20523;-74
2022/11/25 11:03:52;;;;;;;11.90;7.65;;;;;;;;;;6240405;28;20060;-74
2022/11/25 11:07:07;;;;;;;9.10;7.78;;;;;;;;;;6234789;28;21922;-74
2022/11/25 11:10:17;;;;;;;9.13;7.07;;;;;;;;;;6234739;28;20061;-73
2022/11/25 11:13:23;;;;;;;7.50;6.80;;;;;;;;;;6241751;28;20057;-73
2022/11/25 11:16:28;;;;;;;8.18;6.60;;;;;;;;;;6232702;28;20095;-74
2022/11/25 11:19:30;;;;;;;7.55;6.75;;;;;;;;;;6239114;28;20265;-74
2022/11/25 11:22:34;;;;;;;11.30;7.40;;;;;;;;;;6240098;28;20049;-70
2022/11/25 11:25:37;;;;;;;14.18;12.40;;;;;;;;;;6232382;28;20130;-73
2022/11/25 11:28:40;;;;;;;26.90;20.55;;;;;;;;;;6234404;28;20330;-73
2022/11/25 11:31:46;;;;;;;49.13;34.95;;;;;;;;;;6237760;28;20116;-75
2022/11/25 11:34:59;;;;;;;28.40;21.60;;;;;;;;;;6237344;28;20333;-69
2022/11/25 11:38:08;;;;;;;18.45;14.85;;;;;;;;;;6232528;28;20147;-74
2022/11/25 11:41:15;;;;;;;13.68;12.15;;;;;;;;;;6236851;28;20087;-75
2022/11/25 11:44:22;;;;;;;12.70;11.40;;;;;;;;;;6234513;28;20053;-75
2022/11/25 11:47:30;;;;;;;13.85;10.70;;;;;;;;;;6241537;28;20183;-73
2022/11/25 11:50:34;;;;;;;10.70;8.90;;;;;;;;;;6235932;28;20285;-71
2022/11/25 11:53:43;;;;;;;8.77;7.63;;;;;;;;;;6240998;28;20384;-75
2022/11/25 11:56:50;;;;;;;10.38;9.25;;;;;;;;;;6237458;28;20053;-75
2022/11/25 11:59:53;;;;;;;9.43;8.30;;;;;;;;;;6236943;28;20061;-74
2022/11/25 12:03:00;;;;;;;9.07;6.80;;;;;;;;;;6237801;28;20136;-75
2022/11/25 12:06:05;;;;;;;7.35;6.38;;;;;;;;;;6232498;28;20058;-75
2022/11/25 12:09:12;;;;;;;9.18;8.15;;;;;;;;;;6238703;28;20109;-70
2022/11/25 12:12:18;;;;;;;6.70;6.03;;;;;;;;;;6238033;28;20276;-76
2022/11/25 12:15:23;;;;;;;6.35;5.75;;;;;;;;;;6231890;28;20055;-72
2022/11/25 12:18:34;;;;;;;6.72;5.88;;;;;;;;;;6238850;28;20353;-75
2022/11/25 12:21:41;;;;;;;8.40;5.47;;;;;;;;;;6239680;28;20672;-75
2022/11/25 12:24:49;;;;;;;6.88;5.80;;;;;;;;;;6238265;28;20229;-75
2022/11/25 12:27:54;;;;;;;6.65;5.60;;;;;;;;;;6224373;28;20064;-77
2022/11/25 12:31:04;;;;;;;6.97;6.28;;;;;;;;;;6241470;28;20050;-72
2022/11/25 12:34:12;;;;;;;7.22;5.82;;;;;;;;;;6239184;28;20057;-75
2022/11/25 12:37:17;;;;;;;5.82;5.20;;;;;;;;;;6240214;28;20037;-75
2022/11/25 12:40:27;;;;;;;6.78;6.07;;;;;;;;;;6238153;28;20277;-73
2022/11/25 12:43:35;;;;;;;9.68;6.80;;;;;;;;;;6237626;28;20057;-74
2022/11/25 12:46:41;;;;;;;9.60;7.13;;;;;;;;;;6237821;28;20084;-73
2022/11/25 12:49:46;;;;;;;12.65;7.70;;;;;;;;;;6232356;28;20061;-74
2022/11/25 12:52:53;;;;;;;11.63;7.45;;;;;;;;;;6241135;28;20041;-73
2022/11/25 12:55:59;;;;;;;9.80;6.90;;;;;;;;;;6242983;28;20049;-73
2022/11/25 12:59:28;;;;;;;9.38;7.60;;;;;;;;;;6242699;28;20073;-71
2022/11/25 13:02:53;;;;;;;8.52;7.00;;;;;;;;;;6235082;28;20054;-74
2022/11/25 13:06:06;;;;;;;10.93;8.10;;;;;;;;;;6235648;28;20337;-75
2022/11/25 13:09:19;;;;;;;10.18;8.10;;;;;;;;;;6242640;28;20046;-74
2022/11/25 13:12:26;;;;;;;;;;;;;;;;;;6244628;28;20061;-75
2022/11/25 13:15:30;;;;;;;13.63;7.38;;;;;;;;;;6243662;28;20200;-73
2022/11/25 13:18:33;;;;;;;12.32;7.57;;;;;;;;;;6242105;28;20049;-73
2022/11/25 13:21:34;;;;;;;8.98;7.78;;;;;;;;;;6241618;28;20265;-73
2022/11/25 13:24:40;;;;;;;10.52;6.75;;;;;;;;;;6242693;28;20333;-73
2022/11/25 13:31:22;;;;;;;8.70;6.95;;;;;;;;;;6340618;27;20610;-72
2022/11/25 13:34:26;;;;;;;7.78;6.63;;;;;;;;;;6293036;28;20296;-72
2022/11/25 13:37:39;;;;;;;13.18;8.32;;;;;;;;;;6294762;28;20075;-72
2022/11/25 13:40:41;;;;;;;9.05;7.45;;;;;;;;;;6293584;28;20080;-69
2022/11/25 13:43:52;;;;;;;9.77;7.80;;;;;;;;;;6292291;28;20051;-73
2022/11/25 13:46:57;;;;;;;8.48;6.57;;;;;;;;;;6296480;28;20283;-70
2022/11/25 13:50:01;;;;;;;10.45;8.77;;;;;;;;;;6291348;28;21585;-71
2022/11/25 13:53:05;;;;;;;11.68;9.70;;;;;;;;;;6297666;28;20072;-71
2022/11/25 13:56:15;;;;;;;10.63;9.63;;;;;;;;;;6294433;28;20053;-70
2022/11/25 13:59:30;;;;;;;8.63;7.55;;;;;;;;;;6293608;28;20068;-73
2022/11/25 14:02:43;;;;;;;13.30;11.07;;;;;;;;;;6293943;28;20048;-72
2022/11/25 14:06:00;;;;;;;10.13;9.00;;;;;;;;;;6298832;28;20098;-72
2022/11/25 14:09:04;;;;;;;10.23;9.02;;;;;;;;;;6291875;28;20049;-73
2022/11/25 14:12:17;;;;;;;11.98;10.20;;;;;;;;;;6287805;28;20045;-73
2022/11/25 14:15:36;;;;;;;13.13;10.13;;;;;;;;;;6266556;28;20049;-69
2022/11/25 14:18:56;;;;;;;10.45;9.35;;;;;;;;;;6270903;28;20165;-73
2022/11/25 14:22:03;;;;;;;11.27;10.13;;;;;;;;;;6273502;28;20057;-75
2022/11/25 14:25:15;;;;;;;12.73;11.43;;;;;;;;;;6271050;28;20072;-74
2022/11/25 14:28:25;;;;;;;12.75;10.85;;;;;;;;;;6264492;28;20044;-74
2022/11/25 14:31:33;;;;;;;13.02;11.00;;;;;;;;;;6261088;28;20088;-73
2022/11/25 14:34:39;;;;;;;20.70;12.23;;;;;;;;;;6261733;28;20072;-73
2022/11/25 14:37:44;;;;;;;13.90;10.90;;;;;;;;;;6265457;28;20049;-72
2022/11/25 14:40:51;;;;;;;14.18;12.43;;;;;;;;;;6254712;28;20247;-74
2022/11/25 14:43:56;;;;;;;15.25;12.43;;;;;;;;;;6239175;28;20049;-70
2022/11/25 14:46:59;;;;;;;14.52;12.65;;;;;;;;;;6248552;28;20272;-74
2022/11/25 14:50:02;;;;;;;18.63;14.02;;;;;;;;;;6248925;28;20054;-75
2022/11/25 14:53:05;;;;;;;;;;;;;;;;;;6250761;28;20088;-74
2022/11/25 14:56:07;;;;;;;17.00;13.95;;;;;;;;;;6246696;28;19928;-73
2022/11/25 14:59:10;;;;;;;19.17;15.10;;;;;;;;;;6274600;28;20049;-73
2022/11/25 15:02:24;;;;;;;18.83;15.98;;;;;;;;;;6278096;28;20349;-74
2022/11/25 15:05:32;;;;;;;25.27;17.10;;;;;;;;;;6279285;28;20110;-75
2022/11/25 15:08:39;;;;;;;20.13;15.88;;;;;;;;;;6276677;28;20049;-75
2022/11/25 15:11:40;;;;;;;21.45;16.52;;;;;;;;;;6276718;28;21969;-73
2022/11/25 15:14:44;;;;;;;25.40;18.15;;;;;;;;;;6275826;28;20893;-76
2022/11/25 15:17:45;;;;;;;25.58;18.85;;;;;;;;;;6274044;28;20052;-75
2022/11/25 15:20:51;;;;;;;26.58;19.30;;;;;;;;;;6260748;28;20108;-75
2022/11/25 15:23:53;;;;;;;32.38;19.00;;;;;;;;;;6272702;28;20053;-75
2022/11/25 15:26:56;;;;;;;28.02;18.50;;;;;;;;;;6271869;28;20045;-76
2022/11/25 15:29:58;;;;;;;24.65;18.58;;;;;;;;;;6270819;28;20049;-76
2022/11/25 15:33:02;;;;;;;29.30;20.02;;;;;;;;;;6269408;28;20105;-76
2022/11/25 15:36:05;;;;;;;;;;;;;;;;;;6277035;28;20329;-75
2022/11/25 15:39:24;;;;;;;25.83;19.08;;;;;;;;;;6276269;28;19952;-75
2022/11/25 15:42:27;;;;;;;25.63;19.65;;;;;;;;;;6272671;28;20055;-75
2022/11/25 15:45:33;;;;;;;27.77;19.88;;;;;;;;;;6277613;28;20049;-76
2022/11/25 15:48:39;;;;;;;26.63;20.77;;;;;;;;;;6248162;28;20045;-76
2022/11/25 15:51:43;;;;;;;32.83;21.02;;;;;;;;;;6247548;28;20074;-75
2022/11/25 15:54:47;;;;;;;26.30;20.17;;;;;;;;;;6244919;28;20045;-71
2022/11/25 15:57:50;;;;;;;35.25;21.00;;;;;;;;;;6253036;28;20091;-72
2022/11/25 16:01:01;;;;;;;139.05;77.18;;;;;;;;;;6246030;28;20053;-72
2022/11/25 16:04:19;;;;;;;115.68;61.22;;;;;;;;;;6248628;28;20333;-71
2022/11/25 16:07:23;;;;;;;86.75;50.80;;;;;;;;;;6253530;28;20049;-72
2022/11/25 16:10:27;;;;;;;51.25;31.98;;;;;;;;;;6247122;28;20237;-72
2022/11/25 16:13:35;;;;;;;56.30;33.28;;;;;;;;;;6252700;28;20052;-70
2022/11/25 16:16:40;;;;;;;66.75;40.58;;;;;;;;;;6255010;28;20042;-71
2022/11/25 16:19:44;;;;;;;37.67;27.52;;;;;;;;;;6245737;28;20530;-71
2022/11/25 16:22:47;;;;;;;33.35;23.73;;;;;;;;;;6245150;28;20052;-71
2022/11/25 16:25:49;;;;;;;33.92;23.98;;;;;;;;;;6244916;28;20072;-70
2022/11/25 16:28:53;;;;;;;30.88;22.27;;;;;;;;;;6245510;28;20061;-70
2022/11/25 16:31:55;;;;;;;;;;;;;;;;;;6249872;28;20068;-72
2022/11/25 16:35:01;;;;;;;30.67;21.95;;;;;;;;;;6247365;28;19925;-72
2022/11/25 16:38:04;;;;;;;33.75;23.48;;;;;;;;;;6253970;28;20214;-72
2022/11/25 16:41:09;;;;;;;29.73;22.88;;;;;;;;;;6254415;28;20118;-74
2022/11/25 16:44:16;;;;;;;30.95;23.65;;;;;;;;;;6249787;28;20115;-71
2022/11/25 16:47:19;;;;;;;31.33;23.40;;;;;;;;;;6244714;28;20068;-73
2022/11/25 16:50:21;;;;;;;33.58;24.10;;;;;;;;;;6247161;28;20057;-73
2022/11/25 16:53:24;;;;;;;32.72;23.63;;;;;;;;;;6246085;28;20049;-72
2022/11/25 16:56:28;;;;;;;30.55;22.38;;;;;;;;;;6246661;28;20316;-72
2022/11/25 16:59:32;;;;;;;34.03;22.23;;;;;;;;;;6245295;28;20092;-73
2022/11/25 17:02:35;;;;;;;31.85;22.88;;;;;;;;;;6248972;28;20077;-72
2022/11/25 17:05:36;;;;;;;35.45;23.63;;;;;;;;;;6246593;28;20114;-72
2022/11/25 17:08:39;;;;;;;31.20;22.30;;;;;;;;;;6244876;28;20068;-73
2022/11/25 17:11:43;;;;;;;35.93;24.83;;;;;;;;;;6248531;28;20295;-73
2022/11/25 17:14:46;;;;;;;35.42;23.50;;;;;;;;;;6247196;28;20357;-71
2022/11/25 17:17:48;;;;;;;31.40;23.13;;;;;;;;;;6244634;28;20057;-72
2022/11/25 17:20:50;;;;;;;35.63;24.77;;;;;;;;;;6245367;28;20087;-73
2022/11/25 17:23:53;;;;;;;32.47;23.60;;;;;;;;;;6246936;28;20129;-73
2022/11/25 17:26:57;;;;;;;34.67;23.90;;;;;;;;;;6244585;28;20325;-72
2022/11/25 17:30:00;;;;;;;;;;;;;;;;;;6244652;28;20073;-73
2022/11/25 17:33:03;;;;;;;31.45;23.17;;;;;;;;;;6242782;28;19932;-70
2022/11/25 17:36:06;;;;;;;38.47;24.48;;;;;;;;;;6249111;28;20326;-72
2022/11/25 17:39:11;;;;;;;34.95;23.58;;;;;;;;;;6248049;28;20069;-73
2022/11/25 17:42:14;;;;;;;32.78;23.65;;;;;;;;;;6247978;28;20045;-73
2022/11/25 17:45:18;;;;;;;35.55;24.70;;;;;;;;;;6246075;28;20069;-72
2022/11/25 17:48:20;;;;;;;32.25;24.10;;;;;;;;;;6249858;28;20068;-71
2022/11/25 17:51:22;;;;;;;30.15;22.63;;;;;;;;;;6249887;28;20083;-70
2022/11/25 17:54:25;;;;;;;34.67;24.27;;;;;;;;;;6247059;28;20412;-72
2022/11/25 17:57:28;;;;;;;34.45;23.98;;;;;;;;;;6248894;28;20244;-73
2022/11/25 18:00:32;;;;;;;30.23;21.55;;;;;;;;;;6245305;28;20057;-73
2022/11/25 18:03:35;;;;;;;32.90;22.67;;;;;;;;;;6246855;28;20069;-72
2022/11/25 18:06:37;;;;;;;32.63;23.20;;;;;;;;;;6247963;28;20058;-72
2022/11/25 18:09:40;;;;;;;31.85;23.17;;;;;;;;;;6245593;28;20136;-73
2022/11/25 18:12:43;;;;;;;34.67;24.15;;;;;;;;;;6241373;28;20045;-72
2022/11/25 18:15:45;;;;;;;30.85;23.13;;;;;;;;;;6241977;28;20388;-73
2022/11/25 18:18:47;;;;;;;34.53;24.70;;;;;;;;;;6247237;28;20053;-73
2022/11/25 18:21:49;;;;;;;35.58;23.75;;;;;;;;;;6247866;28;20387;-72